• Join FlightAware (Why Join?)
  • Login
  • US Flag 
12:43AM EDT


 

Airport Tracker/Info


-or-


 

Live Flight TrackerFlight Track Log ✈ RPA3143 ✈ 17-Jul-2013 ✈ KDCA - KMCO

Flight Track Log - Related Links

Times and Time Zones

All times are in EDT time to prevent confusion due to time zone crossing. See the RPA3143 flight status page for this flight to view local times or setup timezone preferences in your user account.

Time Position Orientation Groundspeed Altitude Reporting Facility
EDT Latitude Longitude Course Direction KTS MPH feet Rate Location/Type
08:00AM 38.9000 -77.0833 233° Southwest 180 207 2,100  Level Potomac TRACON
08:01AM 38.9500 -77.1333 322° Northwest 245 282 3,500 1,920 Climbing Potomac TRACON
08:02AM 38.9833 -77.1833 311° West 265 305 5,800 2,640 Climbing Potomac TRACON
08:03AM 38.9667 -77.2667 256° West 277 319 8,600 2,160 Climbing Potomac TRACON
08:04AM 38.4059 -77.5387 201° Southwest  Level FlightAware Approximate
08:04AM 38.9000 -77.3000 201° Southwest 312 359 10,200  Level Potomac TRACON
08:05AM 38.3369 -77.6274 233° Southwest  Level FlightAware Approximate
08:05AM 38.8167 -77.3500 205° Southwest 341 392 11,500  Level Potomac TRACON
08:06AM 38.7333 -77.4000 205° Southwest 352 405 13,400 1,740 Climbing Potomac TRACON
08:07AM 38.6333 -77.4333 195° South 357 411 14,900 1,500 Climbing Potomac TRACON
08:08AM 38.5586 -77.4819 207° Southwest 362 417 16,200 1,320 Climbing Washington Center
08:09AM 38.4683 -77.5328 204° Southwest 379 436 17,600 1,260 Climbing Washington Center
08:10AM 38.3775 -77.5939 208° Southwest 379 436 18,800 1,140 Climbing Washington Center
08:11AM 38.3092 -77.7006 231° Southwest 379 436 19,900 1,140 Climbing Washington Center
08:12AM 38.2281 -77.7908 221° Southwest 384 442 21,200 1,200 Climbing Washington Center
08:13AM 38.1431 -77.8808 220° Southwest 392 451 22,400 1,080 Climbing Washington Center
08:14AM 38.0558 -77.9706 219° Southwest 402 463 23,400 1,140 Climbing Washington Center
08:15AM 37.9600 -78.0675 219° Southwest 407 468 24,700 1,020 Climbing Washington Center
08:16AM 37.8728 -78.1567 219° Southwest 407 468 25,500 720 Climbing Washington Center
08:17AM 37.7936 -78.2408 220° Southwest 412 474 26,200 780 Climbing Washington Center
08:18AM 37.7017 -78.3372 220° Southwest 418 481 27,200 1,080 Climbing Washington Center
08:19AM 37.5972 -78.4408 218° Southwest 430 495 28,400 1,080 Climbing Washington Center
08:20AM 37.5053 -78.5344 219° Southwest 435 501 29,400 900 Climbing Washington Center
08:21AM 37.4089 -78.6325 219° Southwest 440 506 30,300 840 Climbing Washington Center
08:22AM 37.3125 -78.7281 218° Southwest 440 506 31,100 900 Climbing Washington Center
08:23AM 37.2161 -78.8258 219° Southwest 440 506 32,200 960 Climbing Washington Center
08:24AM 37.1283 -78.9106 218° Southwest 445 512 33,100 900 Climbing Washington Center
08:25AM 37.0294 -79.0078 218° Southwest 445 512 34,100 780 Climbing Washington Center
08:26AM 36.9372 -79.1025 219° Southwest 445 512 34,800 600 Climbing Washington Center
08:27AM 36.8383 -79.1967 217° Southwest 445 512 35,300 600 Climbing Washington Center
08:28AM 36.7328 -79.3033 219° Southwest 445 512 36,000 300 Climbing Washington Center
08:29AM 36.6403 -79.3944 218° Southwest 445 512 36,000  Level Washington Center
08:30AM 36.4708 -79.5594 218° Southwest 457 526 36,000  Level Atlanta Center
08:31AM 36.3722 -79.6553 218° Southwest 452 520 36,000  Level Atlanta Center
08:32AM 36.2753 -79.7508 218° Southwest 446 513 36,000  Level Atlanta Center
08:33AM 36.1783 -79.8433 218° Southwest 446 513 36,000  Level Atlanta Center
08:34AM 36.0922 -79.9428 223° Southwest 453 521 36,000  Level Atlanta Center
08:35AM 35.9858 -80.0072 206° Southwest 447 514 36,000  Level Atlanta Center
08:36AM 35.8750 -80.0614 202° Southwest 437 503 36,000  Level Atlanta Center
08:37AM 35.7517 -80.1211 201° Southwest 437 503 36,000  Level Atlanta Center
08:38AM 35.6411 -80.1828 204° Southwest 437 503 36,000  Level Atlanta Center
08:39AM 35.5381 -80.2308 201° Southwest 443 510 36,000  Level Atlanta Center
08:40AM 35.4211 -80.2897 202° Southwest 448 516 36,000  Level Atlanta Center
08:41AM 35.3061 -80.3486 203° Southwest 453 521 36,000  Level Atlanta Center
08:42AM 35.1908 -80.4044 202° Southwest 448 516 36,000  Level Atlanta Center
08:44AM 34.9986 -80.4978 202° Southwest 458 527 36,000  Level Jacksonville Center
08:45AM 34.8828 -80.5567 203° Southwest 451 519 36,000  Level Jacksonville Center
08:46AM 34.7756 -80.6128 203° Southwest 445 512 36,000  Level Jacksonville Center
08:47AM 34.6556 -80.6664 200° South 445 512 36,000  Level Jacksonville Center
08:48AM 34.5500 -80.7222 204° Southwest 457 526 36,000  Level Jacksonville Center
08:49AM 34.4383 -80.7753 201° Southwest 448 516 36,000  Level Jacksonville Center
08:50AM 34.3203 -80.8308 201° Southwest 455 524 36,000  Level Jacksonville Center
08:51AM 34.1983 -80.8917 202° Southwest 449 517 36,000  Level Jacksonville Center
08:52AM 34.0844 -80.9469 202° Southwest 443 510 36,000  Level Jacksonville Center
08:53AM 33.9703 -81.0019 202° Southwest 443 510 36,000  Level Jacksonville Center
08:54AM 33.8522 -81.0519 199° South 450 518 36,000  Level Jacksonville Center
08:55AM 33.7333 -81.0669 186° South 437 503 36,000  Level Jacksonville Center
08:56AM 33.6147 -81.0744 183° South 429 494 36,000  Level Jacksonville Center
08:57AM 33.4936 -81.0844 184° South 429 494 36,000  Level Jacksonville Center
08:58AM 33.3769 -81.0967 185° South 429 494 36,000  Level Jacksonville Center
08:59AM 33.2542 -81.1067 184° South 434 499 36,000  Level Jacksonville Center
09:00AM 33.1372 -81.1139 183° South 434 499 36,000  Level Jacksonville Center
09:01AM 33.0225 -81.1261 185° South 429 494 36,000  Level Jacksonville Center
09:02AM 32.8997 -81.1358 184° South 429 494 36,000  Level Jacksonville Center
09:03AM 32.7828 -81.1456 184° South 434 499 36,000  Level Jacksonville Center
09:04AM 32.6661 -81.1603 186° South 421 484 36,000  Level Jacksonville Center
09:05AM 32.5575 -81.1600 180° South 422 486 36,000  Level Jacksonville Center
09:06AM 32.4281 -81.1600 180° South 427 491 36,000  Level Jacksonville Center
09:07AM 32.3194 -81.1569 179° South 427 491 36,000  Level Jacksonville Center
09:08AM 32.2025 -81.1519 178° South 427 491 36,000  Level Jacksonville Center
09:09AM 32.0669 -81.1519 180° South 433 498 36,000  Level Jacksonville Center
09:10AM 31.9458 -81.1494 179° South 441 507 36,000  Level Jacksonville Center
09:11AM 31.8331 -81.1467 179° South 441 507 36,000  Level Jacksonville Center
09:12AM 31.6972 -81.1467 180° South 435 501 36,000  Level Jacksonville Center
09:13AM 31.5783 -81.1442 179° South 440 506 36,000  Level Jacksonville Center
09:14AM 31.4675 -81.1436 180° South 440 506 36,000  Level Jacksonville Center
09:15AM 31.3444 -81.1436 180° South 440 506 36,000  Level Jacksonville Center
09:16AM 31.2128 -81.1411 179° South 440 506 36,000 -180 Level Jacksonville Center
09:17AM 31.0939 -81.1386 179° South 440 506 35,700 -840 Descending Jacksonville Center
09:18AM 30.9747 -81.1358 179° South 435 501 34,400 -900 Descending Jacksonville Center
09:19AM 30.8558 -81.1358 180° South 435 501 34,000 -240 Descending Jacksonville Center
09:20AM 30.7367 -81.1331 179° South 440 506 34,000  Level Jacksonville Center
09:21AM 30.6156 -81.1306 179° South 440 506 34,000  Level Jacksonville Center
09:22AM 30.5006 -81.1278 179° South 435 501 34,000  Level Jacksonville Center
09:23AM 30.3794 -81.1275 180° South 430 495 34,000  Level Jacksonville Center
09:24AM 30.2647 -81.1272 180° South 424 488 34,000 -300 Level Jacksonville Center
09:25AM 30.1478 -81.1247 179° South 419 482 33,500 -1,440 Descending Jacksonville Center
09:26AM 30.0267 -81.1244 180° South 424 488 31,200 -2,400 Descending Jacksonville Center
09:27AM 29.9036 -81.1219 179° South 435 501 28,800 -2,400 Descending Jacksonville Center
09:28AM 29.7844 -81.1217 180° South 435 501 26,500 -2,280 Descending Jacksonville Center
09:29AM 29.6675 -81.1214 180° South 435 501 24,300 -2,220 Descending Jacksonville Center
09:30AM 29.5547 -81.1186 179° South 423 487 22,100 -2,040 Descending Jacksonville Center
09:31AM 29.4567 -81.1158 179° South 406 467 20,300 -5,100 Descending Jacksonville Center
09:32AM 29.3500 -81.1081 176° South 395 455 12,000 -2,040 Descending Jacksonville Center
09:33AM 29.2417 -81.1078 180° South 389 448 16,300 1,140 Climbing Jacksonville Center
09:34AM 29.1369 -81.1000 176° South 384 442 14,300 -1,980 Descending Jacksonville Center
09:35AM 29.0389 -81.0900 175° South 371 427 12,400 -1,140 Descending Jacksonville Center
09:36AM 28.9406 -81.0847 177° South 365 420 12,100 -360 Descending Jacksonville Center
09:37AM 28.8500 -81.1000 188° South 348 400 11,800 -780 Descending Orlando TRACON
09:38AM 28.7500 -81.1333 196° South 298 343 10,600 -1,380 Descending Orlando TRACON
09:39AM 28.6833 -81.1500 192° South 296 341 9,100 -900 Descending Orlando TRACON
09:40AM 28.6000 -81.1667 190° South 239 275 8,900 -780 Descending Orlando TRACON
09:41AM 28.5333 -81.1833 192° South 243 280 7,600 -1,260 Descending Orlando TRACON
09:42AM 28.4667 -81.2000 192° South 232 267 6,300 -1,260 Descending Orlando TRACON
09:43AM 28.4000 -81.2000 180° South 234 269 5,000 -900 Descending Orlando TRACON
09:44AM 28.3333 -81.2000 180° South 228 262 4,600 -1,020 Descending Orlando TRACON
09:45AM 28.2667 -81.2167 192° South 225 259 3,000 -1,320 Descending Orlando TRACON
09:46AM 28.2667 -81.2667 270° West 226 260 2,000 -1,020 Descending Orlando TRACON